Time;durP1;ratioP1;P1;durP2;ratioP2;P2;SDS_P1;SDS_P2;PMS_P1;PMS_P2;Temp;Humidity;BMP_temperature;BMP_pressure;BME280_temperature;BME280_humidity;BME280_pressure;Samples;Min_cycle;Max_cycle;Signal;HPM_P1;HPM_P2
2023/12/12 00:01:23;;;;;;;11.73;3.90;;;14.20;76.30;;;;;;5136054;27;20440;-66
2023/12/12 00:03:50;;;;;;;10.03;2.83;;;14.20;76.50;;;;;;5148964;27;20974;-68
2023/12/12 00:06:18;;;;;;;9.70;5.43;;;14.20;76.50;;;;;;5113860;27;20420;-68
2023/12/12 00:08:44;;;;;;;9.73;4.63;;;14.20;76.80;;;;;;5135855;27;20444;-67
2023/12/12 00:11:11;;;;;;;8.97;4.23;;;14.20;76.90;;;;;;5137468;27;20467;-67
2023/12/12 00:13:40;;;;;;;10.43;3.80;;;14.20;76.70;;;;;;5146305;27;20444;-67
2023/12/12 00:16:07;;;;;;;8.43;3.70;;;14.30;76.40;;;;;;5155770;27;20481;-67
2023/12/12 00:18:34;;;;;;;7.00;3.50;;;14.40;76.30;;;;;;5148268;27;20840;-67
2023/12/12 00:21:01;;;;;;;7.93;3.60;;;14.40;76.20;;;;;;5135905;27;20498;-67
2023/12/12 00:23:28;;;;;;;7.67;2.83;;;14.50;76.10;;;;;;5143830;27;20464;-68
2023/12/12 00:25:55;;;;;;;10.43;3.30;;;14.50;76.00;;;;;;5140226;27;20781;-66
2023/12/12 00:28:22;;;;;;;8.17;3.40;;;14.50;75.80;;;;;;5152933;27;20440;-67
2023/12/12 00:30:51;;;;;;;8.70;3.50;;;14.50;75.70;;;;;;5154181;27;20443;-67
2023/12/12 00:33:18;;;;;;;11.63;3.77;;;14.50;75.80;;;;;;5150139;27;20435;-67
2023/12/12 00:35:45;;;;;;;7.63;3.17;;;14.50;76.60;;;;;;5137930;27;20483;-67
2023/12/12 00:38:12;;;;;;;7.60;3.00;;;14.50;75.80;;;;;;5142886;27;20437;-66
2023/12/12 00:40:39;;;;;;;8.53;2.97;;;14.50;75.70;;;;;;5135453;27;20457;-66
2023/12/12 00:43:05;;;;;;;7.43;2.87;;;14.50;75.80;;;;;;5135213;27;21015;-66
2023/12/12 00:45:32;;;;;;;8.80;3.10;;;14.50;75.90;;;;;;5141081;27;20438;-67
2023/12/12 00:48:00;;;;;;;15.07;7.80;;;14.40;75.80;;;;;;5152199;27;21000;-65
2023/12/12 00:50:27;;;;;;;7.83;4.50;;;14.40;76.00;;;;;;5155691;27;20451;-68
2023/12/12 00:52:54;;;;;;;11.00;3.53;;;14.40;76.30;;;;;;5137829;27;20467;-66
2023/12/12 00:55:20;;;;;;;11.97;3.27;;;14.40;76.60;;;;;;5147082;27;20440;-66
2023/12/12 00:57:47;;;;;;;8.80;3.27;;;14.40;76.70;;;;;;5130306;27;20437;-67
2023/12/12 01:00:15;;;;;;;8.40;2.97;;;14.30;76.90;;;;;;5144381;27;20194;-67
2023/12/12 01:02:41;;;;;;;13.10;4.20;;;14.30;77.00;;;;;;5154411;27;20440;-67
2023/12/12 01:05:10;;;;;;;6.77;3.60;;;14.10;77.70;;;;;;5135413;27;20960;-68
2023/12/12 01:07:37;;;;;;;16.37;8.30;;;14.00;78.00;;;;;;5143155;27;20943;-68
2023/12/12 01:10:04;;;;;;;15.00;7.73;;;14.00;78.30;;;;;;5155340;27;20470;-66
2023/12/12 01:12:31;;;;;;;18.13;8.37;;;14.10;78.50;;;;;;5149067;27;20447;-66
2023/12/12 01:14:59;;;;;;;20.07;8.47;;;14.00;79.10;;;;;;5148438;27;20440;-67
2023/12/12 01:17:27;;;;;;;17.30;8.07;;;14.10;78.50;;;;;;5148474;27;21002;-67
2023/12/12 01:19:54;;;;;;;13.27;5.03;;;14.10;78.40;;;;;;5150632;27;20829;-67
2023/12/12 01:22:23;;;;;;;9.93;4.20;;;14.10;78.40;;;;;;5133978;27;20464;-66
2023/12/12 01:24:49;;;;;;;11.43;3.97;;;14.20;78.60;;;;;;5135054;27;20444;-67
2023/12/12 01:27:16;;;;;;;6.37;2.60;;;14.20;78.30;;;;;;5144873;27;20439;-67
2023/12/12 01:29:43;;;;;;;8.93;2.80;;;14.20;78.10;;;;;;5098017;27;20483;-67
2023/12/12 01:32:10;;;;;;;12.63;4.07;;;14.30;78.10;;;;;;5140041;27;20444;-66
2023/12/12 01:34:37;;;;;;;15.27;5.83;;;14.20;77.60;;;;;;5154783;27;20482;-68
2023/12/12 01:37:04;;;;;;;11.27;6.23;;;14.20;77.00;;;;;;5139988;27;20834;-66
2023/12/12 01:39:32;;;;;;;14.30;6.27;;;14.10;76.80;;;;;;5125637;27;20438;-67
2023/12/12 01:41:59;;;;;;;13.73;6.47;;;14.00;77.00;;;;;;5153012;27;20444;-66
2023/12/12 01:44:26;;;;;;;15.00;6.47;;;13.90;77.30;;;;;;5133775;27;20532;-68
2023/12/12 01:46:53;;;;;;;11.37;6.43;;;13.90;77.50;;;;;;5144369;27;20474;-66
2023/12/12 01:49:20;;;;;;;15.10;5.57;;;13.80;78.50;;;;;;5150207;27;20444;-66
2023/12/12 01:51:47;;;;;;;11.33;5.23;;;13.80;77.90;;;;;;5153965;27;20436;-67
2023/12/12 01:54:16;;;;;;;11.00;4.97;;;13.80;77.80;;;;;;5153367;27;20444;-66
2023/12/12 01:56:46;;;;;;;8.03;4.40;;;13.90;78.00;;;;;;5151887;27;21005;-67
2023/12/12 01:59:13;;;;;;;9.23;4.50;;;13.90;77.90;;;;;;5135741;27;20465;-68
2023/12/12 02:01:41;;;;;;;10.53;5.57;;;13.90;77.90;;;;;;5135205;27;20447;-67
2023/12/12 02:04:08;;;;;;;10.00;5.17;;;13.90;77.60;;;;;;5143806;27;20447;-67
2023/12/12 02:06:36;;;;;;;13.10;5.10;;;13.90;77.60;;;;;;5152678;27;20457;-68
2023/12/12 02:09:04;;;;;;;10.63;5.13;;;13.90;77.50;;;;;;5156209;27;20454;-66
2023/12/12 02:11:31;;;;;;;9.50;4.50;;;13.80;77.30;;;;;;5165124;27;20525;-66
2023/12/12 02:13:59;;;;;;;9.37;4.40;;;13.80;77.20;;;;;;5144638;27;20436;-67
2023/12/12 02:16:26;;;;;;;8.43;3.77;;;13.80;77.20;;;;;;5140431;27;20667;-67
2023/12/12 02:18:54;;;;;;;10.87;4.23;;;13.80;77.10;;;;;;5145939;27;20453;-69
2023/12/12 02:21:22;;;;;;;8.50;4.10;;;13.70;77.20;;;;;;5137132;27;20437;-66
2023/12/12 02:23:49;;;;;;;9.23;3.40;;;13.60;77.50;;;;;;5150839;27;20837;-67
2023/12/12 02:26:17;;;;;;;7.30;3.73;;;13.60;77.60;;;;;;5135104;27;20433;-67
2023/12/12 02:28:44;;;;;;;7.83;3.00;;;13.60;77.70;;;;;;5132471;27;20469;-66
2023/12/12 02:31:11;;;;;;;10.37;4.20;;;13.50;77.70;;;;;;5143046;27;20948;-65
2023/12/12 02:33:37;;;;;;;6.90;3.33;;;13.50;77.80;;;;;;5132090;27;20917;-67
2023/12/12 02:36:05;;;;;;;6.63;3.83;;;13.50;77.70;;;;;;5141001;27;20472;-66
2023/12/12 02:38:33;;;;;;;9.27;4.13;;;13.50;77.60;;;;;;5153742;27;20550;-67
2023/12/12 02:41:03;;;;;;;7.83;3.67;;;13.50;77.60;;;;;;5149927;27;20469;-67
2023/12/12 02:43:30;;;;;;;6.60;2.80;;;13.50;77.80;;;;;;5145319;27;20615;-67
2023/12/12 02:45:57;;;;;;;7.53;3.27;;;13.50;78.70;;;;;;5139746;27;20451;-67
2023/12/12 02:48:24;;;;;;;9.13;3.30;;;13.50;77.80;;;;;;5153479;27;20432;-68
2023/12/12 02:50:53;;;;;;;8.37;3.30;;;13.50;77.90;;;;;;5152430;27;20444;-66
2023/12/12 02:53:21;;;;;;;7.10;3.47;;;13.40;77.90;;;;;;5146971;27;20483;-66
2023/12/12 02:55:49;;;;;;;8.83;3.90;;;13.40;78.00;;;;;;5111761;28;20440;-67
2023/12/12 02:58:16;;;;;;;9.67;3.00;;;13.40;78.20;;;;;;5133474;27;21176;-66
2023/12/12 03:00:42;;;;;;;7.60;3.30;;;13.40;78.30;;;;;;5150357;27;20440;-66
2023/12/12 03:03:10;;;;;;;6.13;2.83;;;13.30;78.40;;;;;;5137959;27;20443;-66
2023/12/12 03:05:36;;;;;;;7.70;3.90;;;13.40;78.60;;;;;;5138326;27;20444;-67
2023/12/12 03:08:04;;;;;;;9.57;3.27;;;13.40;79.40;;;;;;5159466;27;20998;-66
2023/12/12 03:10:30;;;;;;;7.00;2.70;;;13.40;78.60;;;;;;5139126;27;20460;-66
2023/12/12 03:12:58;;;;;;;7.20;3.00;;;13.40;78.80;;;;;;5138587;27;20439;-66
2023/12/12 03:15:27;;;;;;;6.67;3.10;;;13.30;79.00;;;;;;5153648;27;20454;-67
2023/12/12 03:17:56;;;;;;;9.53;2.90;;;13.30;79.20;;;;;;5132651;27;20468;-67
2023/12/12 03:20:22;;;;;;;6.80;3.10;;;13.30;79.40;;;;;;5133071;27;20459;-66
2023/12/12 03:22:49;;;;;;;5.73;2.87;;;13.30;79.50;;;;;;5144145;27;20467;-66
2023/12/12 03:25:16;;;;;;;8.97;2.90;;;13.30;79.40;;;;;;5142278;27;20436;-66
2023/12/12 03:27:43;;;;;;;5.80;2.80;;;13.30;79.40;;;;;;5134569;27;21217;-66
2023/12/12 03:30:12;;;;;;;12.20;2.90;;;13.20;79.40;;;;;;5132619;27;20443;-67
2023/12/12 03:32:39;;;;;;;5.97;3.03;;;13.20;79.40;;;;;;5132922;27;20445;-67
2023/12/12 03:35:06;;;;;;;9.67;2.93;;;13.20;79.20;;;;;;5136534;27;20843;-66
2023/12/12 03:37:34;;;;;;;6.77;2.87;;;13.20;79.30;;;;;;5150843;27;20511;-66
2023/12/12 03:40:01;;;;;;;7.20;2.83;;;13.20;79.00;;;;;;5152154;27;20867;-66
2023/12/12 03:42:27;;;;;;;8.20;2.70;;;13.20;79.00;;;;;;5152203;27;20463;-66
2023/12/12 03:44:54;;;;;;;7.57;2.83;;;13.20;78.80;;;;;;5116171;27;20788;-67
2023/12/12 03:47:22;;;;;;;8.30;2.83;;;13.20;78.60;;;;;;5149109;27;20438;-67
2023/12/12 03:49:49;;;;;;;6.93;3.27;;;13.20;78.60;;;;;;5154913;27;20949;-66
2023/12/12 03:52:16;;;;;;;7.00;2.80;;;13.20;78.60;;;;;;5141368;27;20464;-66
2023/12/12 03:54:43;;;;;;;8.30;2.80;;;13.20;78.60;;;;;;5135594;27;20433;-65
2023/12/12 03:57:10;;;;;;;7.73;2.60;;;13.10;78.60;;;;;;5146245;27;20825;-67
2023/12/12 03:59:37;;;;;;;7.23;3.10;;;13.10;78.90;;;;;;5146178;27;20931;-67
2023/12/12 04:02:04;;;;;;;7.10;2.73;;;13.10;78.70;;;;;;5148745;27;20446;-67
2023/12/12 04:04:32;;;;;;;5.20;3.27;;;13.00;78.70;;;;;;5150789;27;20556;-66
2023/12/12 04:06:59;;;;;;;7.27;2.90;;;13.00;78.90;;;;;;5136168;27;20448;-68
2023/12/12 04:09:26;;;;;;;5.13;2.80;;;13.00;78.80;;;;;;5135342;27;20474;-68
2023/12/12 04:11:52;;;;;;;4.93;2.70;;;12.90;78.50;;;;;;5142965;27;20952;-66
2023/12/12 04:14:19;;;;;;;8.13;2.70;;;12.90;78.30;;;;;;5135618;27;20907;-67
2023/12/12 04:16:47;;;;;;;7.03;2.53;;;12.90;78.50;;;;;;5140553;27;20510;-66
2023/12/12 04:19:14;;;;;;;7.73;2.70;;;12.80;78.60;;;;;;5152757;27;20444;-67
2023/12/12 04:21:43;;;;;;;7.93;3.47;;;12.80;79.00;;;;;;5138145;27;20470;-67
2023/12/12 04:24:10;;;;;;;7.63;3.10;;;12.80;79.30;;;;;;5136677;27;20774;-66
2023/12/12 04:26:36;;;;;;;5.77;2.70;;;12.70;79.30;;;;;;5142399;27;20557;-66
2023/12/12 04:29:04;;;;;;;7.30;2.93;;;12.70;78.80;;;;;;5135065;27;20437;-67
2023/12/12 04:31:31;;;;;;;5.03;2.70;;;12.70;78.60;;;;;;5144332;27;20447;-66
2023/12/12 04:33:58;;;;;;;6.90;2.50;;;12.70;78.80;;;;;;5136389;27;20441;-66
2023/12/12 04:36:24;;;;;;;6.70;2.70;;;12.70;78.90;;;;;;5137311;27;20481;-66
2023/12/12 04:38:52;;;;;;;4.57;2.53;;;12.70;78.90;;;;;;5134561;27;20492;-66
2023/12/12 04:41:19;;;;;;;7.00;2.67;;;12.70;78.90;;;;;;5144693;27;20778;-66
2023/12/12 04:43:46;;;;;;;4.87;2.50;;;12.60;79.00;;;;;;5142469;27;20526;-67
2023/12/12 04:46:19;;;;;;;4.67;2.53;;;12.70;79.10;;;;;;5155105;27;20530;-67
2023/12/12 04:48:47;;;;;;;5.17;2.57;;;12.70;79.20;;;;;;5149597;27;20854;-66
2023/12/12 04:51:15;;;;;;;7.00;3.07;;;12.70;79.20;;;;;;5155064;27;20975;-67
2023/12/12 04:53:41;;;;;;;7.07;3.50;;;12.60;79.40;;;;;;5147492;27;20444;-67
2023/12/12 04:56:10;;;;;;;6.47;2.60;;;12.60;79.60;;;;;;5152797;27;20471;-66
2023/12/12 04:58:37;;;;;;;6.43;3.00;;;12.60;79.70;;;;;;5137932;27;20555;-66
2023/12/12 05:01:04;;;;;;;6.67;2.80;;;12.70;79.90;;;;;;5136399;27;20437;-68
2023/12/12 05:03:32;;;;;;;6.93;3.13;;;12.60;80.00;;;;;;5152550;27;20436;-67
2023/12/12 05:06:00;;;;;;;6.23;2.37;;;12.60;80.20;;;;;;5140155;27;20444;-65
2023/12/12 05:08:26;;;;;;;7.40;3.63;;;12.60;80.20;;;;;;5143070;27;20467;-65
2023/12/12 05:10:53;;;;;;;6.67;2.87;;;12.60;80.30;;;;;;5154823;27;20440;-67
2023/12/12 05:13:21;;;;;;;7.63;3.10;;;12.60;80.50;;;;;;5153910;27;20464;-66
2023/12/12 05:15:49;;;;;;;5.93;2.87;;;12.60;80.60;;;;;;5135684;27;20445;-66
2023/12/12 05:18:16;;;;;;;6.27;2.47;;;12.70;80.50;;;;;;5153870;27;20475;-66
2023/12/12 05:20:44;;;;;;;5.33;2.70;;;12.70;80.40;;;;;;5138891;27;20448;-66
2023/12/12 05:23:13;;;;;;;6.77;3.10;;;12.70;80.50;;;;;;5136685;27;20437;-66
2023/12/12 05:25:41;;;;;;;6.63;4.07;;;12.50;81.30;;;;;;5134435;27;20436;-66
2023/12/12 05:28:08;;;;;;;8.43;3.73;;;12.50;81.70;;;;;;5135169;27;21121;-66
2023/12/12 05:30:36;;;;;;;8.77;3.60;;;12.50;81.70;;;;;;5150693;27;20468;-67
2023/12/12 05:33:02;;;;;;;7.67;3.63;;;12.40;82.30;;;;;;5081483;27;20456;-67
2023/12/12 05:35:29;;;;;;;5.90;3.43;;;12.30;82.70;;;;;;5145523;27;20463;-66
2023/12/12 05:37:56;;;;;;;8.60;3.63;;;12.40;82.60;;;;;;5154545;27;20222;-68
2023/12/12 05:40:22;;;;;;;8.33;3.57;;;12.50;82.50;;;;;;5144495;27;20443;-66
2023/12/12 05:42:49;;;;;;;6.00;3.87;;;12.60;82.40;;;;;;5143456;27;20544;-67
2023/12/12 05:45:17;;;;;;;7.00;3.97;;;12.60;82.30;;;;;;5099787;27;20440;-67
2023/12/12 05:47:46;;;;;;;7.60;3.60;;;12.70;82.20;;;;;;5153992;27;20555;-66
2023/12/12 05:50:15;;;;;;;7.23;3.20;;;12.70;82.40;;;;;;5152661;27;20446;-66
2023/12/12 05:52:42;;;;;;;4.70;2.97;;;12.60;82.80;;;;;;5147555;27;20436;-66
2023/12/12 05:55:09;;;;;;;6.80;3.83;;;12.70;82.80;;;;;;5152016;27;20439;-66
2023/12/12 05:57:36;;;;;;;6.50;2.90;;;12.70;82.70;;;;;;5146965;27;20482;-66
2023/12/12 06:00:05;;;;;;;6.03;3.77;;;12.80;82.60;;;;;;5137659;27;20492;-65
2023/12/12 06:02:32;;;;;;;5.83;3.50;;;12.90;82.60;;;;;;5148664;27;20452;-66
2023/12/12 06:05:00;;;;;;;6.80;3.43;;;12.90;82.20;;;;;;5151316;27;20814;-66
2023/12/12 06:07:27;;;;;;;5.07;2.93;;;13.00;82.30;;;;;;5153450;27;20448;-67
2023/12/12 06:09:54;;;;;;;5.30;2.80;;;13.00;82.30;;;;;;5147996;27;20955;-67
2023/12/12 06:12:21;;;;;;;4.83;3.40;;;13.00;82.30;;;;;;5133872;27;20523;-67
2023/12/12 06:14:47;;;;;;;5.97;3.30;;;13.00;82.30;;;;;;5116356;27;20924;-68
2023/12/12 06:17:15;;;;;;;5.43;3.90;;;13.00;82.00;;;;;;5133591;27;20471;-67
2023/12/12 06:19:42;;;;;;;10.73;4.97;;;13.10;82.10;;;;;;5152563;27;20484;-65
2023/12/12 06:22:10;;;;;;;6.10;3.50;;;13.00;82.00;;;;;;5147434;27;20471;-67
2023/12/12 06:24:37;;;;;;;5.33;3.30;;;12.90;82.30;;;;;;5137757;27;20459;-67
2023/12/12 06:27:04;;;;;;;6.93;3.83;;;13.00;82.30;;;;;;5123898;27;20437;-67
2023/12/12 06:29:32;;;;;;;8.10;3.70;;;13.00;82.40;;;;;;5134954;27;20439;-67
2023/12/12 06:31:58;;;;;;;6.37;3.20;;;12.90;82.20;;;;;;5145985;27;20448;-66
2023/12/12 06:34:25;;;;;;;6.03;3.63;;;12.90;82.70;;;;;;5142137;27;21022;-67
2023/12/12 06:36:52;;;;;;;6.63;3.00;;;12.90;82.60;;;;;;5162211;27;20521;-67
2023/12/12 06:39:20;;;;;;;9.10;3.40;;;12.90;82.60;;;;;;5167677;27;20566;-66
2023/12/12 06:41:47;;;;;;;9.27;3.10;;;13.00;82.70;;;;;;5158931;27;20862;-68
2023/12/12 06:44:14;;;;;;;6.77;3.43;;;13.00;82.50;;;;;;5154344;27;20440;-68
2023/12/12 06:46:41;;;;;;;6.30;3.30;;;13.00;82.80;;;;;;5139743;27;20443;-67
2023/12/12 06:49:08;;;;;;;7.40;3.73;;;12.80;83.20;;;;;;5141692;27;20526;-68
2023/12/12 06:51:35;;;;;;;4.80;3.50;;;12.90;83.30;;;;;;5134001;27;20484;-66
2023/12/12 06:54:03;;;;;;;9.10;3.73;;;13.00;83.90;;;;;;5133150;28;20479;-67
2023/12/12 06:56:31;;;;;;;8.33;3.47;;;13.00;82.90;;;;;;5136832;27;20476;-66
2023/12/12 06:58:58;;;;;;;7.93;4.00;;;13.10;82.80;;;;;;5134083;27;20479;-69
2023/12/12 07:01:25;;;;;;;6.83;3.47;;;13.10;82.60;;;;;;5144907;27;20452;-67
2023/12/12 07:03:52;;;;;;;7.20;3.93;;;13.20;82.60;;;;;;5122540;27;20548;-66
2023/12/12 07:06:19;;;;;;;6.40;3.47;;;13.10;82.60;;;;;;5133312;28;20451;-65
2023/12/12 07:08:48;;;;;;;7.83;3.87;;;13.10;82.50;;;;;;5149320;27;20460;-64
2023/12/12 07:11:16;;;;;;;7.23;3.50;;;13.20;82.60;;;;;;5151856;27;20535;-65
2023/12/12 07:13:44;;;;;;;5.67;3.63;;;13.20;82.60;;;;;;5142429;27;20547;-65
2023/12/12 07:16:11;;;;;;;4.90;3.07;;;13.30;82.60;;;;;;5132885;28;20436;-66
2023/12/12 07:18:39;;;;;;;4.90;3.90;;;13.30;82.70;;;;;;5132544;27;20477;-66
2023/12/12 07:21:06;;;;;;;6.10;3.13;;;13.30;82.60;;;;;;5155561;27;20470;-65
2023/12/12 07:23:34;;;;;;;6.03;3.20;;;13.30;82.20;;;;;;5144727;27;20440;-64
2023/12/12 07:26:01;;;;;;;3.87;2.80;;;13.40;82.20;;;;;;5157173;27;21006;-65
2023/12/12 07:28:28;;;;;;;6.87;3.83;;;13.40;82.20;;;;;;5156934;27;20463;-65
2023/12/12 07:30:56;;;;;;;4.13;3.10;;;13.40;82.10;;;;;;5152662;27;20950;-67
2023/12/12 07:33:24;;;;;;;7.13;3.20;;;13.30;82.20;;;;;;5141043;27;20898;-65
2023/12/12 07:35:51;;;;;;;5.80;2.77;;;13.30;82.30;;;;;;5116325;27;21028;-67
2023/12/12 07:38:17;;;;;;;8.43;3.00;;;13.30;82.60;;;;;;5105608;27;20492;-66
2023/12/12 07:40:44;;;;;;;8.10;3.30;;;13.30;82.50;;;;;;5137565;27;20444;-66
2023/12/12 07:43:12;;;;;;;5.30;2.43;;;13.30;82.40;;;;;;5136457;27;20451;-66
2023/12/12 07:45:39;;;;;;;4.97;2.67;;;13.30;82.30;;;;;;5140952;27;20448;-65
2023/12/12 07:48:07;;;;;;;5.87;2.87;;;13.30;82.30;;;;;;5150370;27;20436;-66
2023/12/12 07:50:34;;;;;;;4.63;2.83;;;13.30;82.30;;;;;;5155939;27;20470;-67
2023/12/12 07:53:04;;;;;;;5.27;3.00;;;13.30;82.40;;;;;;5154494;27;20447;-66
2023/12/12 07:55:31;;;;;;;7.27;3.10;;;13.40;82.60;;;;;;5148519;27;20446;-66
2023/12/12 07:57:58;;;;;;;6.77;2.60;;;13.40;82.70;;;;;;5153998;27;20566;-66
2023/12/12 08:00:26;;;;;;;4.47;2.90;;;13.50;82.70;;;;;;5148483;27;20447;-66
2023/12/12 08:02:53;;;;;;;4.40;2.60;;;13.50;82.70;;;;;;5135128;27;20844;-66
2023/12/12 08:05:21;;;;;;;4.70;2.77;;;13.50;83.60;;;;;;5135453;27;20437;-66
2023/12/12 08:07:49;;;;;;;4.83;2.70;;;13.50;82.90;;;;;;5149055;27;20436;-66
2023/12/12 08:10:16;;;;;;;5.97;3.00;;;13.50;82.90;;;;;;5150530;27;20461;-66
2023/12/12 08:12:43;;;;;;;4.57;2.80;;;13.60;83.00;;;;;;5135256;27;20547;-66
2023/12/12 08:15:10;;;;;;;7.20;3.13;;;13.60;83.00;;;;;;5139936;27;20444;-67
2023/12/12 08:17:38;;;;;;;6.10;2.97;;;13.60;83.00;;;;;;5134871;27;20451;-65
2023/12/12 08:20:07;;;;;;;7.00;3.10;;;13.70;83.00;;;;;;5154062;27;20475;-66
2023/12/12 08:22:35;;;;;;;4.93;3.10;;;13.70;82.90;;;;;;5145800;27;20498;-66
2023/12/12 08:25:02;;;;;;;6.10;3.83;;;13.70;82.80;;;;;;5135898;27;20451;-66
2023/12/12 08:27:29;;;;;;;9.13;3.73;;;13.70;82.70;;;;;;5141801;27;20446;-66
2023/12/12 08:29:57;;;;;;;5.07;3.57;;;13.70;82.60;;;;;;5151452;27;20460;-66
2023/12/12 08:32:24;;;;;;;8.33;3.60;;;13.80;82.90;;;;;;5134070;27;20487;-67
2023/12/12 08:34:51;;;;;;;6.63;4.07;;;13.80;82.70;;;;;;5134534;27;20555;-67
2023/12/12 08:37:17;;;;;;;7.03;4.03;;;13.80;82.30;;;;;;5138909;27;20474;-67
2023/12/12 08:39:46;;;;;;;5.23;3.70;;;13.90;82.20;;;;;;5154822;27;20471;-67
2023/12/12 08:42:14;;;;;;;8.23;3.60;;;13.90;82.10;;;;;;5154330;27;20946;-66
2023/12/12 08:44:41;;;;;;;4.80;2.60;;;13.90;81.60;;;;;;5153132;27;20508;-66
2023/12/12 08:47:08;;;;;;;5.80;2.70;;;13.90;81.60;;;;;;5155451;27;20435;-66
2023/12/12 08:49:37;;;;;;;4.23;3.10;;;13.90;81.40;;;;;;5154419;27;20546;-66
2023/12/12 08:52:05;;;;;;;4.73;2.67;;;13.90;81.30;;;;;;5139482;27;20471;-66
2023/12/12 08:54:32;;;;;;;6.17;2.60;;;14.00;81.50;;;;;;5134537;27;20501;-65
2023/12/12 08:57:02;;;;;;;6.07;2.77;;;14.00;81.40;;;;;;5116202;27;20469;-66
2023/12/12 08:59:29;;;;;;;4.43;2.43;;;14.00;81.50;;;;;;5133668;27;20480;-66
2023/12/12 09:01:56;;;;;;;4.13;2.30;;;14.10;81.50;;;;;;5143654;27;20471;-66
2023/12/12 09:04:23;;;;;;;3.50;2.27;;;14.10;81.50;;;;;;5153183;27;20526;-66
2023/12/12 09:06:50;;;;;;;3.43;2.07;;;14.10;81.00;;;;;;5152207;27;20444;-68
2023/12/12 09:09:16;;;;;;;5.87;2.37;;;14.10;80.70;;;;;;5136688;27;20441;-67
2023/12/12 09:11:46;;;;;;;4.73;2.07;;;14.20;80.80;;;;;;5154718;27;20520;-66
2023/12/12 09:14:15;;;;;;;6.80;2.73;;;14.20;80.70;;;;;;5154596;27;20470;-67
2023/12/12 09:16:41;;;;;;;4.23;1.80;;;14.20;80.60;;;;;;5154414;27;20463;-68
2023/12/12 09:19:09;;;;;;;4.47;2.07;;;14.20;80.60;;;;;;5150601;27;20519;-66
2023/12/12 09:21:36;;;;;;;4.70;2.20;;;14.20;80.50;;;;;;5137675;27;20447;-65
2023/12/12 09:24:03;;;;;;;6.03;2.43;;;14.30;80.40;;;;;;5154515;27;20474;-67
2023/12/12 09:26:30;;;;;;;4.60;2.10;;;14.30;80.10;;;;;;5154508;27;20476;-66
2023/12/12 09:28:57;;;;;;;4.60;2.47;;;14.30;80.20;;;;;;5150997;27;20432;-66
2023/12/12 09:31:29;;;;;;;6.03;2.37;;;14.30;80.20;;;;;;5136442;27;21013;-65
2023/12/12 09:33:56;;;;;;;3.70;2.23;;;14.30;81.00;;;;;;5154114;27;20440;-66
2023/12/12 09:36:23;;;;;;;4.83;2.30;;;14.30;80.00;;;;;;5140420;27;20482;-66
2023/12/12 09:38:50;;;;;;;2.77;2.20;;;14.30;80.00;;;;;;5132985;27;20477;-66
2023/12/12 09:41:21;;;;;;;5.27;2.37;;;14.30;80.00;;;;;;5132853;27;20444;-67
2023/12/12 09:43:49;;;;;;;3.47;1.90;;;14.40;79.90;;;;;;5135365;27;20511;-67
2023/12/12 09:46:17;;;;;;;4.53;2.20;;;14.40;79.80;;;;;;5115274;27;20528;-66
2023/12/12 09:48:46;;;;;;;3.93;2.20;;;14.30;79.50;;;;;;5133432;27;20538;-66
2023/12/12 09:51:14;;;;;;;6.03;2.30;;;14.40;79.50;;;;;;5132334;27;20476;-65
2023/12/12 09:53:46;;;;;;;4.33;2.20;;;14.40;79.70;;;;;;5132539;27;20441;-66
2023/12/12 09:56:16;;;;;;;4.20;2.00;;;14.40;79.70;;;;;;5133535;27;20440;-67
2023/12/12 09:58:46;;;;;;;4.67;2.17;;;14.40;79.90;;;;;;5132576;27;20484;-67
2023/12/12 10:01:13;;;;;;;3.13;2.10;;;14.30;80.40;;;;;;5133091;27;20451;-66
2023/12/12 10:03:43;;;;;;;4.30;2.13;;;14.40;80.50;;;;;;5152355;27;20468;-66
2023/12/12 10:06:12;;;;;;;5.07;2.30;;;14.30;81.20;;;;;;5154136;27;20444;-67
2023/12/12 10:08:39;;;;;;;4.30;2.20;;;14.30;81.10;;;;;;5139093;27;20532;-66
2023/12/12 10:11:08;;;;;;;3.13;1.93;;;14.30;81.70;;;;;;5151803;27;20498;-67
2023/12/12 10:13:48;;;;;;;4.70;2.20;;;14.30;82.00;;;;;;5153781;27;20862;-67
2023/12/12 10:16:15;;;;;;;2.50;2.00;;;14.30;82.60;;;;;;5153532;27;21118;-67
2023/12/12 10:18:44;;;;;;;3.07;1.97;;;14.20;82.50;;;;;;5153348;27;20567;-67
2023/12/12 10:21:17;;;;;;;5.63;2.40;;;14.30;82.80;;;;;;5152053;27;20454;-68
2023/12/12 10:23:45;;;;;;;2.90;2.00;;;14.30;83.60;;;;;;5143715;27;21063;-66
2023/12/12 10:26:13;;;;;;;3.77;2.03;;;14.40;83.80;;;;;;5153275;27;20539;-66
2023/12/12 10:28:42;;;;;;;3.17;1.90;;;14.40;83.90;;;;;;5153316;27;20537;-66
2023/12/12 10:31:09;;;;;;;3.50;2.10;;;14.40;84.10;;;;;;5132467;27;20475;-66
2023/12/12 10:33:38;;;;;;;4.60;2.27;;;14.40;84.30;;;;;;5132900;27;20527;-67
2023/12/12 10:36:09;;;;;;;4.93;2.60;;;14.40;84.30;;;;;;5132365;27;20506;-67
2023/12/12 10:38:38;;;;;;;3.27;2.00;;;14.40;84.30;;;;;;5132399;27;20468;-66
2023/12/12 10:41:13;;;;;;;3.07;2.10;;;14.40;84.30;;;;;;5115032;28;20536;-66
2023/12/12 10:43:41;;;;;;;2.70;2.10;;;14.50;85.00;;;;;;5136282;27;20439;-66
2023/12/12 10:46:11;;;;;;;3.87;2.63;;;14.50;85.60;;;;;;5143079;27;20476;-66
2023/12/12 10:48:44;;;;;;;4.80;2.73;;;14.50;86.20;;;;;;5135134;27;20458;-65
2023/12/12 10:51:12;;;;;;;4.83;2.73;;;14.50;85.60;;;;;;5134250;27;20483;-65
2023/12/12 10:53:41;;;;;;;3.57;2.80;;;14.50;86.20;;;;;;5151406;27;20468;-66
2023/12/12 10:56:09;;;;;;;4.13;2.40;;;14.40;85.60;;;;;;5151524;27;20445;-67
2023/12/12 10:58:37;;;;;;;6.87;2.77;;;14.40;85.50;;;;;;5141017;27;20444;-65
2023/12/12 11:01:06;;;;;;;3.77;2.50;;;14.40;86.00;;;;;;5147643;27;20437;-67
2023/12/12 11:03:35;;;;;;;5.43;2.67;;;14.40;85.70;;;;;;5141584;27;20441;-67
2023/12/12 11:06:02;;;;;;;4.83;2.63;;;14.40;86.10;;;;;;5138139;27;20436;-68
2023/12/12 11:08:30;;;;;;;3.57;2.67;;;14.50;86.60;;;;;;5148205;27;20496;-67
2023/12/12 11:11:00;;;;;;;5.33;3.03;;;14.50;86.60;;;;;;5155832;27;20435;-67
2023/12/12 11:13:30;;;;;;;3.53;2.70;;;14.50;87.20;;;;;;5157589;27;20919;-67
2023/12/12 11:16:00;;;;;;;3.37;2.57;;;14.50;88.10;;;;;;5156821;27;20474;-68
2023/12/12 11:18:27;;;;;;;3.63;2.63;;;14.60;87.40;;;;;;5156878;27;20534;-68
2023/12/12 11:20:54;;;;;;;6.27;3.10;;;14.60;87.60;;;;;;5120442;27;21056;-67
2023/12/12 11:23:55;;;;;;;6.83;3.10;;;14.60;87.80;;;;;;5146687;27;20451;-68
2023/12/12 11:26:26;;;;;;;5.07;3.00;;;14.60;88.20;;;;;;5157203;27;20435;-66
2023/12/12 11:28:54;;;;;;;4.70;2.90;;;14.50;87.80;;;;;;5156934;27;20459;-67
2023/12/12 11:31:35;;;;;;;4.20;2.60;;;14.60;87.70;;;;;;5148539;27;20858;-67
2023/12/12 11:34:04;;;;;;;4.83;2.90;;;14.60;88.00;;;;;;5148459;27;20613;-66
2023/12/12 11:36:50;;;;;;;4.83;3.63;;;14.60;87.70;;;;;;5156629;27;20472;-66
2023/12/12 11:39:29;;;;;;;5.23;3.27;;;14.60;87.80;;;;;;5156549;27;21048;-67
2023/12/12 11:41:58;;;;;;;5.57;3.30;;;14.60;87.60;;;;;;5154963;27;20471;-67
2023/12/12 11:44:26;;;;;;;5.93;3.57;;;14.50;87.90;;;;;;5146005;27;20820;-67
2023/12/12 11:46:54;;;;;;;4.50;2.83;;;14.40;88.50;;;;;;5140994;27;20522;-66
2023/12/12 11:49:22;;;;;;;5.27;2.93;;;14.30;88.80;;;;;;5156644;27;20496;-66
2023/12/12 11:51:50;;;;;;;5.83;2.93;;;14.30;89.10;;;;;;5156094;27;20781;-66
2023/12/12 11:54:24;;;;;;;5.17;2.80;;;14.20;89.20;;;;;;5156252;27;20474;-66
2023/12/12 11:56:58;;;;;;;7.43;4.57;;;14.20;89.40;;;;;;5135995;27;21010;-66
2023/12/12 11:59:25;;;;;;;7.17;3.67;;;14.10;89.70;;;;;;5135661;27;20987;-67
2023/12/12 12:01:53;;;;;;;6.67;3.20;;;14.00;89.70;;;;;;5144768;27;20435;-67
2023/12/12 12:04:21;;;;;;;4.87;2.83;;;14.10;90.00;;;;;;5156450;27;20885;-66
2023/12/12 12:06:49;;;;;;;5.93;2.80;;;14.20;89.90;;;;;;5149622;27;20450;-66
2023/12/12 12:09:17;;;;;;;5.53;3.70;;;14.20;89.80;;;;;;5135683;27;20452;-68
2023/12/12 12:11:47;;;;;;;5.40;3.40;;;14.20;89.80;;;;;;5136802;27;20435;-66
2023/12/12 12:14:21;;;;;;;5.67;3.43;;;14.30;89.70;;;;;;5134897;27;20457;-67
2023/12/12 12:16:52;;;;;;;7.00;3.40;;;14.30;89.70;;;;;;5134874;27;20835;-66
2023/12/12 12:19:30;;;;;;;4.53;3.20;;;14.30;89.80;;;;;;5139799;27;20486;-66
2023/12/12 12:22:03;;;;;;;7.63;4.57;;;14.30;89.90;;;;;;5150530;27;20963;-66
2023/12/12 12:24:30;;;;;;;5.67;4.00;;;14.40;90.00;;;;;;5135429;27;20513;-67
2023/12/12 12:26:58;;;;;;;5.67;3.80;;;14.40;90.30;;;;;;5135248;27;20451;-66
2023/12/12 12:29:28;;;;;;;6.47;3.70;;;14.40;90.00;;;;;;5135366;27;20441;-67
2023/12/12 12:31:55;;;;;;;6.17;4.77;;;14.40;90.20;;;;;;5143518;27;20440;-67
2023/12/12 12:34:23;;;;;;;6.60;4.50;;;14.20;90.20;;;;;;5155738;27;20866;-67
2023/12/12 12:36:51;;;;;;;9.10;4.93;;;14.20;90.50;;;;;;5155941;27;20523;-67
2023/12/12 12:39:19;;;;;;;8.93;4.00;;;14.20;90.60;;;;;;5155536;27;20508;-67
2023/12/12 12:41:48;;;;;;;4.47;3.30;;;14.20;90.50;;;;;;5135423;27;20479;-67
2023/12/12 12:44:15;;;;;;;8.10;4.40;;;14.20;90.70;;;;;;5135024;27;20466;-67
2023/12/12 12:46:50;;;;;;;8.63;3.87;;;14.20;90.60;;;;;;5135117;27;20531;-66
2023/12/12 12:49:17;;;;;;;6.17;4.20;;;14.20;90.70;;;;;;5114932;27;20460;-67